createdAt,value
2023-04-12T00:00:33.062Z,100535.44
2023-04-12T00:03:04.886Z,100522.84
2023-04-12T00:05:32.749Z,100538.16
2023-04-12T00:08:05.201Z,100521.56
2023-04-12T00:10:32.973Z,100522.38
2023-04-12T00:13:00.664Z,100517.16
2023-04-12T00:15:28.616Z,100522.88
2023-04-12T00:17:56.743Z,100516.78
2023-04-12T00:20:24.663Z,100520.31
2023-04-12T00:22:54.018Z,100516.00
2023-04-12T00:25:21.792Z,100523.09
2023-04-12T00:27:49.615Z,100502.88
2023-04-12T00:30:17.700Z,100526.50
2023-04-12T00:32:46.458Z,100519.00
2023-04-12T00:35:14.253Z,100519.31
2023-04-12T00:37:41.899Z,100514.03
2023-04-12T00:40:10.322Z,100502.88
2023-04-12T00:42:38.530Z,100508.81
2023-04-12T00:45:07.195Z,100501.00
2023-04-12T00:47:39.501Z,100503.44
2023-04-12T00:50:09.500Z,100499.19
2023-04-12T00:52:38.148Z,100508.41
2023-04-12T00:55:07.737Z,100502.00
2023-04-12T00:57:37.358Z,100498.44
2023-04-12T01:00:14.036Z,100500.78
2023-04-12T01:02:47.815Z,100501.34
2023-04-12T01:05:22.610Z,100505.44
2023-04-12T01:08:28.450Z,100496.97
2023-04-12T01:11:08.385Z,100485.19
2023-04-12T01:14:17.602Z,100483.81
2023-04-12T01:16:51.439Z,100469.56
2023-04-12T01:19:31.825Z,100488.56
2023-04-12T01:22:18.338Z,100486.03
2023-04-12T01:25:04.525Z,100484.47
2023-04-12T01:27:38.440Z,100481.25
2023-04-12T01:30:11.301Z,100469.53
2023-04-12T01:32:40.799Z,100468.06
2023-04-12T01:35:09.419Z,100466.25
2023-04-12T01:37:37.985Z,100458.41
2023-04-12T01:40:09.295Z,100444.81
2023-04-12T01:42:37.216Z,100446.25
2023-04-12T01:45:05.289Z,100459.34
2023-04-12T01:47:36.515Z,100471.72
2023-04-12T01:50:23.128Z,100460.03
2023-04-12T01:53:03.301Z,100472.13
2023-04-12T01:55:37.313Z,100471.78
2023-04-12T01:58:08.161Z,100466.25
2023-04-12T02:00:37.004Z,100470.66
2023-04-12T02:03:08.127Z,100475.44
2023-04-12T02:05:49.234Z,100478.13
2023-04-12T02:08:24.978Z,100466.50
2023-04-12T02:10:53.193Z,100456.38
2023-04-12T02:13:20.886Z,100458.91
2023-04-12T02:15:49.657Z,100456.97
2023-04-12T02:18:17.631Z,100448.31
2023-04-12T02:20:45.752Z,100455.75
2023-04-12T02:23:15.348Z,100468.06
2023-04-12T02:25:47.049Z,100466.00
2023-04-12T02:28:16.928Z,100453.34
2023-04-12T02:30:45.789Z,100457.00
2023-04-12T02:33:15.864Z,100446.63
2023-04-12T02:35:45.327Z,100446.50
2023-04-12T02:38:16.724Z,100446.72
2023-04-12T02:40:45.324Z,100455.16
2023-04-12T02:43:16.610Z,100446.50
2023-04-12T02:45:49.078Z,100456.38
2023-04-12T02:48:17.011Z,100457.72
2023-04-12T02:50:45.646Z,100458.69
2023-04-12T02:53:23.150Z,100462.34
2023-04-12T02:56:11.312Z,100453.94
2023-04-12T02:58:39.953Z,100449.81
2023-04-12T03:01:11.500Z,100448.59
2023-04-12T03:03:56.176Z,100429.19
2023-04-12T03:06:37.601Z,100429.84
2023-04-12T03:09:05.809Z,100436.13
2023-04-12T03:11:33.673Z,100431.03
2023-04-12T03:14:01.456Z,100428.84
2023-04-12T03:16:30.097Z,100435.44
2023-04-12T03:19:08.573Z,100423.69
2023-04-12T03:21:37.921Z,100418.56
2023-04-12T03:24:06.226Z,100420.56
2023-04-12T03:26:35.434Z,100402.91
2023-04-12T03:29:12.750Z,100405.75
2023-04-12T03:31:42.566Z,100412.66
2023-04-12T03:34:11.191Z,100417.22
2023-04-12T03:36:43.938Z,100416.00
2023-04-12T03:39:20.244Z,100404.31
2023-04-12T03:41:53.376Z,100417.00
2023-04-12T03:44:26.335Z,100414.06
2023-04-12T03:46:56.897Z,100408.63
2023-04-12T03:49:26.120Z,100400.03
2023-04-12T03:51:56.198Z,100403.81
2023-04-12T03:54:24.450Z,100418.09
2023-04-12T03:56:57.857Z,100416.53
2023-04-12T03:59:33.108Z,100403.88
2023-04-12T04:02:02.050Z,100400.34
2023-04-12T04:04:32.725Z,100386.25
2023-04-12T04:07:06.410Z,100403.06
2023-04-12T04:09:41.022Z,100396.88
2023-04-12T04:12:10.900Z,100397.69
2023-04-12T04:14:43.337Z,100401.25
2023-04-12T04:17:15.523Z,100401.41
2023-04-12T04:19:43.450Z,100381.41
2023-04-12T04:22:12.550Z,100371.47
2023-04-12T04:24:40.932Z,100365.72
2023-04-12T04:27:08.842Z,100382.81
2023-04-12T04:29:44.455Z,100382.28
2023-04-12T04:32:15.921Z,100382.16
2023-04-12T04:34:45.960Z,100391.94
2023-04-12T04:37:19.152Z,100385.31
2023-04-12T04:39:48.542Z,100388.53
2023-04-12T04:42:16.736Z,100376.28
2023-04-12T04:45:05.550Z,100372.25
2023-04-12T04:47:42.224Z,100384.66
2023-04-12T04:50:10.514Z,100363.97
2023-04-12T04:52:39.571Z,100384.22
2023-04-12T04:55:11.826Z,100386.66
2023-04-12T04:57:42.434Z,100397.66
2023-04-12T05:00:11.802Z,100400.41
2023-04-12T05:02:45.833Z,100399.00
2023-04-12T05:05:21.196Z,100389.28
2023-04-12T05:07:49.763Z,100386.53
2023-04-12T05:10:17.607Z,100387.28
2023-04-12T05:12:45.627Z,100396.31
2023-04-12T05:15:16.146Z,100391.66
2023-04-12T05:17:44.571Z,100389.25
2023-04-12T05:20:12.129Z,100377.63
2023-04-12T05:22:40.168Z,100382.72
2023-04-12T05:25:08.408Z,100378.59
2023-04-12T05:27:44.606Z,100372.53
2023-04-12T05:30:15.971Z,100388.22
2023-04-12T05:32:44.894Z,100387.91
2023-04-12T05:35:15.409Z,100362.41
2023-04-12T05:37:44.987Z,100379.06
2023-04-12T05:40:14.678Z,100386.97
2023-04-12T05:42:43.408Z,100367.38
2023-04-12T05:45:12.148Z,100379.56
2023-04-12T05:47:40.678Z,100402.34
2023-04-12T05:50:08.807Z,100391.63
2023-04-12T05:52:37.829Z,100407.94
2023-04-12T05:55:09.923Z,100410.81
2023-04-12T05:57:41.492Z,100420.06
2023-04-12T06:00:19.160Z,100415.44
2023-04-12T06:02:50.530Z,100402.97
2023-04-12T06:05:19.550Z,100412.81
2023-04-12T06:07:48.471Z,100398.34
2023-04-12T06:10:17.711Z,100395.81
2023-04-12T06:12:49.629Z,100388.59
2023-04-12T06:15:17.725Z,100388.88
2023-04-12T06:17:46.193Z,100406.66
2023-04-12T06:20:14.155Z,100397.38
2023-04-12T06:22:42.225Z,100407.44
2023-04-12T06:25:10.552Z,100395.38
2023-04-12T06:27:44.069Z,100376.78
2023-04-12T06:30:13.468Z,100378.44
2023-04-12T06:32:41.375Z,100373.03
2023-04-12T06:35:10.375Z,100382.53
2023-04-12T06:37:40.391Z,100402.34
2023-04-12T06:40:09.268Z,100394.97
2023-04-12T06:42:37.101Z,100379.34
2023-04-12T06:45:05.392Z,100391.41
2023-04-12T06:47:36.219Z,100386.56
2023-04-12T06:50:07.045Z,100400.56
2023-04-12T06:52:35.037Z,100393.13
2023-04-12T06:55:02.985Z,100390.00
2023-04-12T06:57:30.788Z,100393.00
2023-04-12T06:59:58.501Z,100371.25
2023-04-12T07:02:26.796Z,100378.00
2023-04-12T07:04:55.275Z,100376.81
2023-04-12T07:07:24.917Z,100366.09
2023-04-12T07:09:53.181Z,100364.97
2023-04-12T07:12:22.164Z,100379.16
2023-04-12T07:14:49.926Z,100365.06
2023-04-12T07:17:17.582Z,100385.81
2023-04-12T07:19:45.231Z,100400.28
2023-04-12T07:22:14.172Z,100387.41
2023-04-12T07:24:41.981Z,100398.81
2023-04-12T07:27:11.406Z,100401.03
2023-04-12T07:29:39.250Z,100394.78
2023-04-12T07:32:07.242Z,100383.38
2023-04-12T07:34:35.071Z,100394.13
2023-04-12T07:37:03.190Z,100396.75
2023-04-12T07:39:31.883Z,100403.09
2023-04-12T07:41:59.534Z,100391.44
2023-04-12T07:44:27.005Z,100379.69
2023-04-12T07:46:54.833Z,100382.53
2023-04-12T07:49:22.493Z,100370.81
2023-04-12T07:51:50.293Z,100377.31
2023-04-12T07:54:18.229Z,100373.28
2023-04-12T07:57:03.768Z,100379.69
2023-04-12T07:59:31.971Z,100373.44
2023-04-12T08:02:00.547Z,100362.72
2023-04-12T08:04:30.634Z,100368.91
2023-04-12T08:06:58.494Z,100377.94
2023-04-12T08:09:26.481Z,100388.75
2023-04-12T08:11:54.097Z,100386.44
2023-04-12T08:14:21.888Z,100406.50
2023-04-12T08:16:49.979Z,100395.66
2023-04-12T08:19:18.643Z,100413.09
2023-04-12T08:21:48.816Z,100409.44
2023-04-12T08:24:17.964Z,100410.41
2023-04-12T08:26:46.367Z,100423.22
2023-04-12T08:29:14.103Z,100415.53
2023-04-12T08:31:42.218Z,100416.72
2023-04-12T08:34:13.352Z,100419.91
2023-04-12T08:36:41.448Z,100414.91
2023-04-12T08:39:09.654Z,100419.31
2023-04-12T08:41:39.457Z,100407.94
2023-04-12T08:44:07.349Z,100417.00
2023-04-12T08:46:37.320Z,100403.84
2023-04-12T08:49:05.208Z,100403.69
2023-04-12T08:51:37.171Z,100389.31
2023-04-12T08:54:05.542Z,100397.47
2023-04-12T08:56:33.442Z,100405.53
2023-04-12T08:59:01.687Z,100404.41
2023-04-12T09:01:29.685Z,100409.69
2023-04-12T09:03:58.125Z,100404.78
2023-04-12T09:06:26.174Z,100419.44
2023-04-12T09:08:55.817Z,100421.13
2023-04-12T09:11:26.358Z,100423.34
2023-04-12T09:13:56.229Z,100428.81
2023-04-12T09:16:38.510Z,100425.03
2023-04-12T09:19:06.855Z,100425.28
2023-04-12T09:21:35.754Z,100423.44
2023-04-12T09:24:14.782Z,100417.22
2023-04-12T09:26:42.715Z,100414.38
2023-04-12T09:29:27.135Z,100402.47
2023-04-12T09:31:59.298Z,100404.75
2023-04-12T09:34:27.973Z,100402.81
2023-04-12T09:36:57.021Z,100387.09
2023-04-12T09:39:35.019Z,100406.84
2023-04-12T09:42:33.298Z,100391.97
2023-04-12T09:45:23.325Z,100394.66
2023-04-12T09:47:55.027Z,100387.78
2023-04-12T09:50:33.085Z,100384.69
2023-04-12T09:53:03.258Z,100378.44
2023-04-12T09:55:32.640Z,100376.47
2023-04-12T09:58:04.276Z,100362.13
2023-04-12T10:00:34.552Z,100370.13
2023-04-12T10:03:03.807Z,100367.94
2023-04-12T10:05:32.175Z,100368.81
2023-04-12T10:08:15.960Z,100355.75
2023-04-12T10:10:54.756Z,100357.34
2023-04-12T10:13:29.061Z,100353.41
2023-04-12T10:16:01.028Z,100348.16
2023-04-12T10:18:39.089Z,100349.94
2023-04-12T10:21:16.191Z,100355.16
2023-04-12T10:23:45.755Z,100339.88
2023-04-12T10:26:16.441Z,100350.19
2023-04-12T10:28:49.101Z,100339.41
2023-04-12T10:31:33.393Z,100339.78
2023-04-12T10:34:11.790Z,100324.25
2023-04-12T10:36:54.242Z,100362.69
2023-04-12T10:39:45.458Z,100353.59
2023-04-12T10:42:27.474Z,100331.38
2023-04-12T10:45:36.347Z,100339.63
2023-04-12T10:48:06.817Z,100323.06
2023-04-12T10:51:33.348Z,100322.81
2023-04-12T10:54:17.377Z,100345.41
2023-04-12T10:56:46.885Z,100334.47
2023-04-12T10:59:34.289Z,100330.13
2023-04-12T11:02:12.759Z,100320.91
2023-04-12T11:05:10.561Z,100335.25
2023-04-12T11:08:13.353Z,100330.06
2023-04-12T11:11:18.183Z,100324.19
2023-04-12T11:13:46.699Z,100315.84
2023-04-12T11:16:14.497Z,100318.94
2023-04-12T11:18:46.369Z,100291.66
2023-04-12T11:21:14.731Z,100301.03
2023-04-12T11:23:43.652Z,100304.44
2023-04-12T11:26:11.259Z,100287.44
2023-04-12T11:28:39.136Z,100294.81
2023-04-12T11:31:06.817Z,100278.09
2023-04-12T11:33:39.300Z,100277.75
2023-04-12T11:36:09.800Z,100278.22
2023-04-12T11:38:38.116Z,100269.34
2023-04-12T11:41:08.815Z,100265.44
2023-04-12T11:44:03.593Z,100255.78
2023-04-12T11:46:35.630Z,100249.25
2023-04-12T11:49:03.230Z,100231.16
2023-04-12T11:51:38.007Z,100240.91
2023-04-12T11:54:08.691Z,100242.53
2023-04-12T11:56:37.253Z,100249.59
2023-04-12T11:59:06.902Z,100236.06
2023-04-12T12:01:38.514Z,100256.13
2023-04-12T12:04:06.846Z,100249.75
2023-04-12T12:06:35.312Z,100247.19
2023-04-12T12:09:03.639Z,100225.22
2023-04-12T12:11:33.160Z,100224.34
2023-04-12T12:14:01.211Z,100237.13
2023-04-12T12:16:30.499Z,100231.31
2023-04-12T12:18:58.382Z,100224.38
2023-04-12T12:21:27.514Z,100228.91
2023-04-12T12:23:58.779Z,100220.13
2023-04-12T12:26:30.840Z,100216.13
2023-04-12T12:29:00.560Z,100209.06
2023-04-12T12:31:29.614Z,100209.44
2023-04-12T12:33:59.473Z,100214.03
2023-04-12T12:36:38.754Z,100214.84
2023-04-12T12:39:12.340Z,100213.88
2023-04-12T12:41:41.195Z,100194.72
2023-04-12T12:44:11.494Z,100203.38
2023-04-12T12:46:51.769Z,100195.44
2023-04-12T12:49:21.581Z,100195.41
2023-04-12T12:51:50.545Z,100182.38
2023-04-12T12:54:32.311Z,100180.06
2023-04-12T12:57:05.774Z,100180.06
2023-04-12T12:59:35.518Z,100176.56
2023-04-12T13:02:03.600Z,100179.78
2023-04-12T13:04:32.952Z,100156.66
2023-04-12T13:07:00.745Z,100166.31
2023-04-12T13:09:28.492Z,100169.91
2023-04-12T13:11:57.366Z,100176.44
2023-04-12T13:14:24.996Z,100166.78
2023-04-12T13:16:52.838Z,100154.84
2023-04-12T13:19:20.756Z,100154.41
2023-04-12T13:21:48.993Z,100163.78
2023-04-12T13:24:18.072Z,100142.38
2023-04-12T13:26:46.141Z,100144.28
2023-04-12T13:29:13.736Z,100126.25
2023-04-12T13:31:41.485Z,100142.16
2023-04-12T13:34:09.196Z,100145.56
2023-04-12T13:36:36.770Z,100149.81
2023-04-12T13:39:04.600Z,100144.97
2023-04-12T13:41:33.906Z,100143.44
2023-04-12T13:44:02.467Z,100148.94
2023-04-12T13:46:31.866Z,100138.78
2023-04-12T13:48:59.659Z,100148.69
2023-04-12T13:51:28.402Z,100150.09
2023-04-12T13:53:56.662Z,100148.06
2023-04-12T13:56:24.811Z,100146.34
2023-04-12T13:58:52.752Z,100143.06
2023-04-12T14:01:23.709Z,100143.75
2023-04-12T14:03:53.647Z,100152.22
2023-04-12T14:06:21.440Z,100141.22
2023-04-12T14:08:49.261Z,100136.56
2023-04-12T14:11:16.925Z,100136.00
2023-04-12T14:13:44.427Z,100132.75
2023-04-12T14:16:12.258Z,100128.50
2023-04-12T14:18:40.875Z,100125.63
2023-04-12T14:21:10.288Z,100118.28
2023-04-12T14:23:37.955Z,100121.66
2023-04-12T14:26:06.310Z,100116.06
2023-04-12T14:28:35.963Z,100123.66
2023-04-12T14:31:06.434Z,100124.94
2023-04-12T14:33:34.498Z,100127.09
2023-04-12T14:36:10.230Z,100107.97
2023-04-12T14:38:42.126Z,100097.66
2023-04-12T14:41:10.241Z,100101.03
2023-04-12T14:43:38.006Z,100106.94
2023-04-12T14:46:07.003Z,100093.72
2023-04-12T14:48:34.989Z,100072.41
2023-04-12T14:51:03.862Z,100092.28
2023-04-12T14:53:34.943Z,100076.94
2023-04-12T14:56:03.173Z,100078.78
2023-04-12T14:58:31.951Z,100071.28
2023-04-12T15:01:00.998Z,100090.25
2023-04-12T15:03:30.707Z,100086.41
2023-04-12T15:05:59.400Z,100089.09
2023-04-12T15:08:31.209Z,100087.72
2023-04-12T15:11:00.840Z,100104.84
2023-04-12T15:13:34.291Z,100085.72
2023-04-12T15:16:04.472Z,100078.91
2023-04-12T15:18:32.392Z,100082.97
2023-04-12T15:21:00.530Z,100092.34
2023-04-12T15:23:29.195Z,100102.00
2023-04-12T15:26:03.250Z,100101.56
2023-04-12T15:28:33.444Z,100099.53
2023-04-12T15:31:02.055Z,100078.31
2023-04-12T15:33:38.397Z,100089.75
2023-04-12T15:36:06.425Z,100101.25
2023-04-12T15:38:41.666Z,100094.03
2023-04-12T15:41:10.725Z,100081.59
2023-04-12T15:43:38.506Z,100090.50
2023-04-12T15:46:07.244Z,100086.00
2023-04-12T15:48:38.803Z,100088.25
2023-04-12T15:51:06.918Z,100100.47
2023-04-12T15:53:35.143Z,100100.16
2023-04-12T15:56:05.127Z,100106.63
2023-04-12T15:58:32.851Z,100105.94
2023-04-12T16:01:00.597Z,100091.09
2023-04-12T16:03:28.807Z,100075.72
2023-04-12T16:05:58.334Z,100090.44
2023-04-12T16:08:28.641Z,100089.06
2023-04-12T16:10:57.088Z,100089.34
2023-04-12T16:13:25.253Z,100076.59
2023-04-12T16:15:53.079Z,100088.25
2023-04-12T16:18:40.226Z,100100.16
2023-04-12T16:21:09.276Z,100096.41
2023-04-12T16:23:40.788Z,100085.38
2023-04-12T16:26:09.444Z,100106.25
2023-04-12T16:28:47.045Z,100096.19
2023-04-12T16:31:15.866Z,100094.03
2023-04-12T16:33:45.342Z,100082.28
2023-04-12T16:36:14.068Z,100078.06
2023-04-12T16:38:41.995Z,100080.38
2023-04-12T16:41:09.943Z,100060.63
2023-04-12T16:43:37.741Z,100065.63
2023-04-12T16:46:07.449Z,100056.28
2023-04-12T16:48:44.143Z,100051.31
2023-04-12T16:51:12.002Z,100042.66
2023-04-12T16:53:42.688Z,100051.97
2023-04-12T16:56:10.904Z,100057.91
2023-04-12T16:58:38.757Z,100047.59
2023-04-12T17:01:08.242Z,100032.91
2023-04-12T17:03:36.022Z,100049.97
2023-04-12T17:06:04.711Z,100048.59
2023-04-12T17:08:33.528Z,100042.75
2023-04-12T17:11:04.703Z,100047.38
2023-04-12T17:13:37.130Z,100044.25
2023-04-12T17:16:05.404Z,100041.22
2023-04-12T17:18:34.787Z,100034.78
2023-04-12T17:21:02.921Z,100015.13
2023-04-12T17:23:38.883Z,100026.13
2023-04-12T17:26:09.984Z,100024.03
2023-04-12T17:28:39.789Z,100021.28
2023-04-12T17:31:09.784Z,100025.09
2023-04-12T17:33:37.880Z,100017.44
2023-04-12T17:36:11.394Z,100025.53
2023-04-12T17:38:39.559Z,100029.78
2023-04-12T17:41:09.453Z,100024.56
2023-04-12T17:43:37.637Z,100018.75
2023-04-12T17:46:07.398Z,100013.50
2023-04-12T17:48:36.061Z,100012.06
2023-04-12T17:51:07.237Z,100010.22
2023-04-12T17:53:39.855Z,100002.47
2023-04-12T17:56:08.531Z,100007.84
2023-04-12T17:58:38.492Z,100006.16
2023-04-12T18:01:06.901Z,100020.59
2023-04-12T18:03:37.684Z,100029.00
2023-04-12T18:06:10.610Z,100008.97
2023-04-12T18:08:39.967Z,100020.28
2023-04-12T18:11:08.135Z,100014.09
2023-04-12T18:13:43.199Z,100011.84
2023-04-12T18:16:11.253Z,100008.00
2023-04-12T18:18:42.384Z,100025.25
2023-04-12T18:21:10.415Z,100002.91
2023-04-12T18:23:40.697Z,100018.50
2023-04-12T18:26:09.440Z,100018.16
2023-04-12T18:28:43.092Z,99998.47
2023-04-12T18:31:11.469Z,100007.69
2023-04-12T18:33:39.581Z,100006.41
2023-04-12T18:36:10.287Z,100001.75
2023-04-12T18:38:38.577Z,99993.38
2023-04-12T18:41:06.432Z,100014.59
2023-04-12T18:43:34.243Z,100013.75
2023-04-12T18:46:05.575Z,100031.50
2023-04-12T18:48:33.874Z,100018.03
2023-04-12T18:51:02.010Z,100034.94
2023-04-12T18:53:31.690Z,100020.66
2023-04-12T18:56:13.291Z,100012.94
2023-04-12T18:58:54.463Z,100018.28
2023-04-12T19:01:25.590Z,100009.06
2023-04-12T19:03:59.613Z,100014.75
2023-04-12T19:06:30.253Z,100022.28
2023-04-12T19:09:00.028Z,100018.03
2023-04-12T19:11:29.261Z,100013.38
2023-04-12T19:14:01.338Z,100007.13
2023-04-12T19:16:31.266Z,100013.34
2023-04-12T19:19:05.059Z,100020.25
2023-04-12T19:21:39.901Z,100007.66
2023-04-12T19:24:09.688Z,100016.34
2023-04-12T19:26:48.379Z,100001.91
2023-04-12T19:29:23.879Z,100002.00
2023-04-12T19:31:55.646Z,99991.97
2023-04-12T19:34:33.637Z,100001.69
2023-04-12T19:37:13.728Z,99981.69
2023-04-12T19:39:46.245Z,99981.84
2023-04-12T19:42:22.021Z,99993.53
2023-04-12T19:44:57.258Z,99996.94
2023-04-12T19:47:31.252Z,99982.44
2023-04-12T19:50:10.060Z,99989.59
2023-04-12T19:52:49.458Z,99988.28
2023-04-12T19:55:28.908Z,99981.84
2023-04-12T19:57:59.162Z,99969.56
2023-04-12T20:00:34.806Z,99992.84
2023-04-12T20:03:07.461Z,99977.50
2023-04-12T20:05:43.348Z,99983.47
2023-04-12T20:08:21.832Z,99980.41
2023-04-12T20:10:55.714Z,99964.81
2023-04-12T20:13:31.400Z,99968.75
2023-04-12T20:16:02.908Z,99952.56
2023-04-12T20:18:50.998Z,99948.50
2023-04-12T20:21:30.724Z,99960.09
2023-04-12T20:24:19.134Z,99948.25
2023-04-12T20:26:50.941Z,99950.78
2023-04-12T20:29:22.694Z,99957.97
2023-04-12T20:31:52.207Z,99939.22
2023-04-12T20:34:24.935Z,99948.66
2023-04-12T20:37:02.644Z,99944.41
2023-04-12T20:39:31.706Z,99936.56
2023-04-12T20:42:02.518Z,99938.63
2023-04-12T20:44:46.643Z,99935.38
2023-04-12T20:47:17.685Z,99921.06
2023-04-12T20:49:48.905Z,99923.25
2023-04-12T20:52:24.228Z,99915.19
2023-04-12T20:54:58.233Z,99925.91
2023-04-12T20:57:28.069Z,99918.19
2023-04-12T20:59:56.114Z,99916.38
2023-04-12T21:02:26.730Z,99918.44
2023-04-12T21:04:56.237Z,99909.41
2023-04-12T21:07:28.065Z,99914.19
2023-04-12T21:09:55.914Z,99910.56
2023-04-12T21:12:23.717Z,99903.63
2023-04-12T21:14:51.646Z,99907.22
2023-04-12T21:17:22.637Z,99929.31
2023-04-12T21:19:52.177Z,99941.22
2023-04-12T21:22:19.856Z,99928.72
2023-04-12T21:24:47.497Z,99956.56
2023-04-12T21:27:15.302Z,99945.59
2023-04-12T21:29:43.144Z,99941.94
2023-04-12T21:32:11.482Z,99936.13
2023-04-12T21:34:39.376Z,99936.97
2023-04-12T21:37:07.116Z,99937.16
2023-04-12T21:39:35.306Z,99929.50
2023-04-12T21:42:03.654Z,99935.34
2023-04-12T21:44:31.376Z,99934.75
2023-04-12T21:46:59.217Z,99927.53
2023-04-12T21:49:27.005Z,99931.22
2023-04-12T21:51:57.077Z,99939.75
2023-04-12T21:54:24.651Z,99946.66
2023-04-12T21:56:52.193Z,99947.00
2023-04-12T21:59:19.774Z,99943.25
2023-04-12T22:01:47.190Z,99939.72
2023-04-12T22:04:14.839Z,99925.66
2023-04-12T22:06:44.576Z,99918.47
2023-04-12T22:09:12.487Z,99920.56
2023-04-12T22:11:40.170Z,99905.19
2023-04-12T22:14:10.255Z,99910.66
2023-04-12T22:16:38.649Z,99900.25
2023-04-12T22:19:06.276Z,99892.28
2023-04-12T22:21:33.948Z,99899.22
2023-04-12T22:24:01.898Z,99899.50
2023-04-12T22:26:31.240Z,99909.31
2023-04-12T22:28:58.826Z,99897.16
2023-04-12T22:31:26.447Z,99899.13
2023-04-12T22:33:55.043Z,99901.56
2023-04-12T22:36:28.547Z,99893.88
2023-04-12T22:38:56.767Z,99898.28
2023-04-12T22:41:28.329Z,99882.59
2023-04-12T22:44:01.523Z,99882.56
2023-04-12T22:46:32.401Z,99880.59
2023-04-12T22:49:03.362Z,99894.00
2023-04-12T22:51:32.252Z,99888.81
2023-04-12T22:54:00.181Z,99882.28
2023-04-12T22:56:29.299Z,99889.69
2023-04-12T22:58:56.882Z,99887.38
2023-04-12T23:01:25.274Z,99873.34
2023-04-12T23:03:52.946Z,99876.25
2023-04-12T23:06:20.630Z,99867.03
2023-04-12T23:08:49.746Z,99866.84
2023-04-12T23:11:17.482Z,99866.03
2023-04-12T23:13:45.203Z,99850.75
2023-04-12T23:16:12.928Z,99854.25
2023-04-12T23:18:40.683Z,99852.66
2023-04-12T23:21:11.212Z,99843.56
2023-04-12T23:23:38.789Z,99838.81
2023-04-12T23:26:06.323Z,99845.25
2023-04-12T23:28:34.445Z,99841.91
2023-04-12T23:31:02.024Z,99825.56
2023-04-12T23:33:29.554Z,99818.91
2023-04-12T23:35:57.124Z,99815.97
2023-04-12T23:38:32.150Z,99822.53
2023-04-12T23:41:02.459Z,99805.28
2023-04-12T23:43:32.572Z,99797.03
2023-04-12T23:46:01.617Z,99789.50
2023-04-12T23:48:29.709Z,99784.47
2023-04-12T23:50:57.309Z,99777.31
2023-04-12T23:53:25.074Z,99778.06
2023-04-12T23:55:53.778Z,99762.22
2023-04-12T23:58:21.826Z,99761.88
